createdAt,value
2019-02-07T00:02:56.281Z,34.63
2019-02-07T00:08:00.984Z,36.30
2019-02-07T00:13:05.626Z,57.70
2019-02-07T00:18:09.983Z,51.23
2019-02-07T00:23:14.321Z,35.10
2019-02-07T00:28:18.591Z,39.40
2019-02-07T00:33:23.801Z,35.20
2019-02-07T00:38:30.108Z,38.63
2019-02-07T00:43:34.362Z,34.33
2019-02-07T00:48:38.620Z,39.80
2019-02-07T00:53:43.201Z,37.47
2019-02-07T00:58:47.436Z,36.60
2019-02-07T01:03:51.784Z,34.00
2019-02-07T01:08:56.122Z,41.83
2019-02-07T01:14:01.118Z,37.37
2019-02-07T01:19:05.479Z,39.27
2019-02-07T01:24:09.743Z,40.20
2019-02-07T01:29:13.999Z,40.93
2019-02-07T01:34:18.352Z,36.80
2019-02-07T01:39:23.130Z,38.83
2019-02-07T01:44:27.372Z,43.00
2019-02-07T01:49:31.707Z,41.20
2019-02-07T01:54:36.308Z,39.03
2019-02-07T01:59:40.594Z,38.00
2019-02-07T02:04:44.931Z,38.13
2019-02-07T02:09:49.290Z,42.83
2019-02-07T02:14:53.542Z,39.97
2019-02-07T02:19:57.882Z,38.43
2019-02-07T02:25:02.423Z,41.67
2019-02-07T02:30:09.782Z,42.70
2019-02-07T02:35:14.234Z,32.57
2019-02-07T02:40:19.011Z,40.27
2019-02-07T02:45:35.429Z,39.00
2019-02-07T02:50:29.702Z,41.13
2019-02-07T02:55:35.975Z,43.20
2019-02-07T03:01:03.628Z,42.93
2019-02-07T03:06:26.898Z,33.57
2019-02-07T03:11:48.988Z,42.00
2019-02-07T03:17:10.847Z,37.70
2019-02-07T03:22:34.037Z,37.80
2019-02-07T03:27:53.269Z,40.20
2019-02-07T03:33:15.185Z,37.67
2019-02-07T03:38:41.813Z,38.47
2019-02-07T03:44:04.974Z,42.33
2019-02-07T03:49:16.361Z,40.00
2019-02-07T03:54:45.894Z,46.03
2019-02-07T04:00:09.088Z,39.17
2019-02-07T04:05:32.757Z,40.27
2019-02-07T04:11:11.122Z,47.77
2019-02-07T04:16:34.072Z,44.13
2019-02-07T04:21:53.028Z,40.47
2019-02-07T04:27:17.690Z,45.10
2019-02-07T04:32:44.000Z,43.33
2019-02-07T04:37:59.287Z,41.37
2019-02-07T04:43:21.386Z,41.90
2019-02-07T04:48:43.235Z,41.67
2019-02-07T04:54:00.524Z,43.43
2019-02-07T04:59:15.527Z,44.50
2019-02-07T05:04:35.827Z,41.90
2019-02-07T05:10:08.548Z,39.33
2019-02-07T05:15:47.715Z,41.33
2019-02-07T05:21:06.440Z,37.70
2019-02-07T05:26:38.314Z,39.03
2019-02-07T05:32:10.384Z,41.97
2019-02-07T05:37:42.653Z,36.83
2019-02-07T05:42:56.805Z,42.97
2019-02-07T05:48:27.183Z,45.00
2019-02-07T05:53:50.423Z,41.13
2019-02-07T05:59:12.450Z,41.30
2019-02-07T06:04:54.945Z,46.37
2019-02-07T06:10:18.342Z,48.40
2019-02-07T06:15:41.847Z,45.10
2019-02-07T06:21:11.442Z,44.83
2019-02-07T06:26:33.496Z,45.80
2019-02-07T06:31:55.403Z,44.47
2019-02-07T06:37:15.153Z,47.40
2019-02-07T06:42:29.932Z,53.63
2019-02-07T06:48:05.493Z,44.03
2019-02-07T06:53:28.686Z,48.90
2019-02-07T06:58:51.049Z,43.47
2019-02-07T07:04:14.331Z,47.07
2019-02-07T07:09:42.398Z,39.67
2019-02-07T07:15:02.701Z,39.67
2019-02-07T07:20:27.690Z,48.20
2019-02-07T07:25:50.072Z,46.07
2019-02-07T07:31:16.244Z,51.83
2019-02-07T07:36:33.878Z,46.37
2019-02-07T07:42:10.232Z,43.00
2019-02-07T07:47:35.736Z,44.50
2019-02-07T07:52:42.771Z,52.70
2019-02-07T07:57:57.074Z,47.07
2019-02-07T08:03:19.278Z,41.07
2019-02-07T08:08:36.754Z,48.97
2019-02-07T08:14:02.725Z,52.10
2019-02-07T08:19:23.495Z,50.30
2019-02-07T08:24:46.786Z,51.33
2019-02-07T08:30:09.986Z,50.33
2019-02-07T08:35:32.940Z,47.43
2019-02-07T08:41:02.526Z,55.00
2019-02-07T08:46:25.856Z,54.10
2019-02-07T08:51:58.145Z,56.10
2019-02-07T08:57:36.812Z,47.07
2019-02-07T09:02:58.687Z,56.20
2019-02-07T09:08:18.506Z,54.33
2019-02-07T09:13:44.793Z,66.53
2019-02-07T09:19:07.994Z,59.70
2019-02-07T09:24:46.909Z,56.80
2019-02-07T09:30:22.248Z,59.07
2019-02-07T09:36:04.819Z,58.37
2019-02-07T09:41:38.044Z,50.07
2019-02-07T09:47:09.322Z,56.00
2019-02-07T09:52:35.414Z,54.53
2019-02-07T09:57:45.678Z,61.37
2019-02-07T10:02:57.842Z,56.53
2019-02-07T10:08:39.204Z,57.30
2019-02-07T10:14:01.244Z,61.50
2019-02-07T10:19:27.733Z,56.47
2019-02-07T10:24:56.995Z,62.30
2019-02-07T10:30:18.855Z,88.53
2019-02-07T10:35:48.549Z,78.93
2019-02-07T10:41:02.595Z,49.70
2019-02-07T10:46:28.869Z,49.67
2019-02-07T10:52:07.299Z,46.70
2019-02-07T10:57:37.043Z,46.93
2019-02-07T11:03:06.554Z,48.60
2019-02-07T11:08:42.279Z,50.37
2019-02-07T11:13:59.628Z,47.03
2019-02-07T11:19:22.973Z,34.67
2019-02-07T11:24:48.160Z,38.67
2019-02-07T11:30:15.153Z,30.40
2019-02-07T11:35:56.824Z,19.03
2019-02-07T11:41:12.810Z,41.80
2019-02-07T11:46:26.665Z,37.93
2019-02-07T11:51:53.082Z,37.83
2019-02-07T11:57:18.744Z,30.77
2019-02-07T12:02:36.912Z,36.57
2019-02-07T12:08:00.061Z,49.70
2019-02-07T12:13:23.778Z,33.53
2019-02-07T12:19:02.338Z,26.57
2019-02-07T12:24:29.118Z,27.63
2019-02-07T12:29:58.362Z,13.77
2019-02-07T12:35:21.625Z,15.23
2019-02-07T12:40:51.122Z,13.37
2019-02-07T12:46:23.403Z,11.80
2019-02-07T12:51:49.671Z,11.97
2019-02-07T12:57:11.541Z,9.40
2019-02-07T13:02:33.853Z,8.67
2019-02-07T13:07:49.352Z,8.80
2019-02-07T13:13:07.374Z,8.90
2019-02-07T13:18:33.618Z,11.07
2019-02-07T13:24:09.301Z,7.90
2019-02-07T13:29:23.520Z,9.07
2019-02-07T13:34:55.728Z,6.93
2019-02-07T13:40:21.899Z,7.07
2019-02-07T13:45:33.767Z,6.60
2019-02-07T13:50:57.040Z,8.53
2019-02-07T13:56:23.460Z,7.77
2019-02-07T14:01:49.772Z,7.27
2019-02-07T14:07:23.110Z,8.07
2019-02-07T14:12:52.475Z,6.17
2019-02-07T14:18:24.567Z,8.37
2019-02-07T14:23:48.299Z,9.70
2019-02-07T14:29:08.710Z,11.33
2019-02-07T14:34:26.122Z,11.57
2019-02-07T14:39:50.883Z,12.67
2019-02-07T14:45:20.665Z,11.33
2019-02-07T14:50:42.485Z,12.20
2019-02-07T14:55:34.001Z,10.27
2019-02-07T15:00:38.331Z,14.20
2019-02-07T15:05:42.602Z,7.90
2019-02-07T15:10:46.944Z,11.83
2019-02-07T15:15:51.365Z,11.13
2019-02-07T15:20:56.058Z,10.63
2019-02-07T15:26:00.380Z,6.77
2019-02-07T15:31:04.826Z,12.30
2019-02-07T15:36:10.639Z,14.67
2019-02-07T15:41:16.095Z,9.00
2019-02-07T15:46:21.219Z,13.73
2019-02-07T15:51:25.798Z,10.77
2019-02-07T15:56:30.168Z,11.87
2019-02-07T16:01:42.306Z,11.83
2019-02-07T16:06:46.870Z,17.63
2019-02-07T16:11:51.904Z,11.90
2019-02-07T16:16:56.775Z,13.07
2019-02-07T16:22:02.053Z,13.60
2019-02-07T16:27:06.443Z,11.70
2019-02-07T16:32:11.180Z,17.93
2019-02-07T16:37:15.499Z,13.10
2019-02-07T16:42:20.143Z,17.80
2019-02-07T16:47:24.823Z,7.43
2019-02-07T16:52:30.772Z,12.80
2019-02-07T16:57:35.063Z,9.43
2019-02-07T17:02:40.159Z,9.13
2019-02-07T17:07:48.101Z,18.70
2019-02-07T17:12:52.404Z,14.43
2019-02-07T17:17:57.053Z,16.67
2019-02-07T17:23:01.665Z,14.33
2019-02-07T17:28:06.283Z,12.60
2019-02-07T17:33:10.785Z,15.47
2019-02-07T17:38:15.116Z,14.00
2019-02-07T17:43:19.532Z,13.20
2019-02-07T17:48:24.209Z,13.13
2019-02-07T17:53:28.719Z,13.93
2019-02-07T17:58:33.054Z,15.60
2019-02-07T18:03:37.451Z,15.87
2019-02-07T18:08:42.404Z,13.03
2019-02-07T18:13:46.891Z,12.63
2019-02-07T18:18:51.147Z,16.50
2019-02-07T18:23:55.898Z,10.30
2019-02-07T18:29:00.198Z,16.77
2019-02-07T18:34:05.127Z,11.67
2019-02-07T18:39:10.853Z,9.13
2019-02-07T18:44:15.101Z,8.13
2019-02-07T18:49:19.460Z,8.60
2019-02-07T18:54:23.768Z,10.90
2019-02-07T18:59:28.356Z,12.97
2019-02-07T19:04:32.682Z,9.17
2019-02-07T19:09:37.268Z,11.97
2019-02-07T19:14:43.682Z,9.70
2019-02-07T19:19:49.812Z,9.50
2019-02-07T19:24:54.129Z,14.50
2019-02-07T19:29:58.697Z,7.50
2019-02-07T19:35:11.155Z,14.73
2019-02-07T19:40:16.124Z,12.23
2019-02-07T19:45:21.712Z,13.97
2019-02-07T19:50:27.392Z,10.90
2019-02-07T19:55:31.753Z,10.17
2019-02-07T20:00:39.481Z,9.97
2019-02-07T20:05:44.006Z,10.37
2019-02-07T20:10:48.362Z,8.10
2019-02-07T20:15:57.016Z,12.03
2019-02-07T20:21:01.448Z,12.93
2019-02-07T20:26:06.764Z,13.27
2019-02-07T20:31:12.126Z,8.27
2019-02-07T20:36:16.967Z,10.73
2019-02-07T20:41:21.279Z,8.80
2019-02-07T20:46:25.801Z,7.07
2019-02-07T20:51:30.467Z,6.60
2019-02-07T20:56:36.124Z,12.73
2019-02-07T21:01:41.395Z,12.03
2019-02-07T21:06:46.110Z,9.73
2019-02-07T21:11:50.560Z,8.93
2019-02-07T21:16:55.106Z,9.63
2019-02-07T21:21:59.488Z,6.63
2019-02-07T21:27:03.788Z,11.07
2019-02-07T21:32:08.887Z,11.23
2019-02-07T21:37:13.270Z,11.40
2019-02-07T21:42:18.214Z,11.13
2019-02-07T21:47:23.657Z,12.30
2019-02-07T21:52:28.394Z,6.97
2019-02-07T21:57:32.660Z,8.57
2019-02-07T22:02:37.013Z,8.03
2019-02-07T22:07:41.755Z,13.33
2019-02-07T22:12:46.043Z,9.10
2019-02-07T22:17:50.671Z,8.20
2019-02-07T22:22:55.206Z,3.23
2019-02-07T22:27:59.459Z,6.33
2019-02-07T22:33:14.316Z,8.00
2019-02-07T22:38:21.601Z,5.80
2019-02-07T22:43:26.308Z,10.70
2019-02-07T22:48:30.831Z,14.03
2019-02-07T22:53:35.117Z,6.50
2019-02-07T22:58:39.775Z,7.20
2019-02-07T23:03:46.699Z,8.10
2019-02-07T23:08:51.252Z,6.00
2019-02-07T23:13:55.607Z,3.33
2019-02-07T23:18:59.907Z,7.17
2019-02-07T23:24:04.658Z,4.70
2019-02-07T23:29:09.096Z,9.20
2019-02-07T23:34:13.553Z,6.50
2019-02-07T23:39:17.793Z,5.13
2019-02-07T23:44:22.995Z,4.30
2019-02-07T23:49:27.611Z,6.57
2019-02-07T23:54:32.746Z,5.90
2019-02-07T23:59:37.050Z,5.63
